createdAt,value
2023-05-18T00:00:02.574Z,26.08
2023-05-18T00:02:31.804Z,26.03
2023-05-18T00:05:02.415Z,26.04
2023-05-18T00:07:34.286Z,25.99
2023-05-18T00:10:01.940Z,25.98
2023-05-18T00:12:29.035Z,26.16
2023-05-18T00:14:56.043Z,25.94
2023-05-18T00:17:23.629Z,25.74
2023-05-18T00:19:51.921Z,25.60
2023-05-18T00:22:19.443Z,25.61
2023-05-18T00:24:46.818Z,25.81
2023-05-18T00:27:13.755Z,25.87
2023-05-18T00:29:40.581Z,25.75
2023-05-18T00:32:08.024Z,25.72
2023-05-18T00:34:37.321Z,25.58
2023-05-18T00:37:04.472Z,25.50
2023-05-18T00:39:31.443Z,25.45
2023-05-18T00:41:58.269Z,25.38
2023-05-18T00:44:25.108Z,25.39
2023-05-18T00:46:52.493Z,25.26
2023-05-18T00:49:19.322Z,25.01
2023-05-18T00:51:46.127Z,24.95
2023-05-18T00:54:12.951Z,25.22
2023-05-18T00:56:42.197Z,24.98
2023-05-18T00:59:12.521Z,24.79
2023-05-18T01:01:43.916Z,24.70
2023-05-18T01:04:14.421Z,24.82
2023-05-18T01:06:43.235Z,24.95
2023-05-18T01:09:11.895Z,25.09
2023-05-18T01:12:20.527Z,25.11
2023-05-18T01:15:01.912Z,24.96
2023-05-18T01:17:51.380Z,25.25
2023-05-18T01:20:49.533Z,25.33
2023-05-18T01:23:55.038Z,25.33
2023-05-18T01:26:30.173Z,25.46
2023-05-18T01:28:59.488Z,25.59
2023-05-18T01:31:27.016Z,25.60
2023-05-18T01:33:53.930Z,25.41
2023-05-18T01:36:20.865Z,25.33
2023-05-18T01:38:47.641Z,25.22
2023-05-18T01:41:22.746Z,25.06
2023-05-18T01:44:07.402Z,24.88
2023-05-18T01:46:43.545Z,24.94
2023-05-18T01:49:25.437Z,25.01
2023-05-18T01:51:52.467Z,24.95
2023-05-18T01:54:19.483Z,24.85
2023-05-18T01:56:46.284Z,24.32
2023-05-18T01:59:13.088Z,24.43
2023-05-18T02:01:40.184Z,24.79
2023-05-18T02:04:10.679Z,25.01
2023-05-18T02:06:38.058Z,24.85
2023-05-18T02:09:05.804Z,24.53
2023-05-18T02:11:33.541Z,24.46
2023-05-18T02:14:01.210Z,24.49
2023-05-18T02:16:28.331Z,24.53
2023-05-18T02:18:56.303Z,24.53
2023-05-18T02:21:23.307Z,24.42
2023-05-18T02:23:50.552Z,24.05
2023-05-18T02:26:17.912Z,23.97
2023-05-18T02:28:52.752Z,23.93
2023-05-18T02:31:19.694Z,23.85
2023-05-18T02:33:46.599Z,23.85
2023-05-18T02:36:14.250Z,24.10
2023-05-18T02:38:42.812Z,24.03
2023-05-18T02:41:10.704Z,24.00
2023-05-18T02:43:37.948Z,24.12
2023-05-18T02:46:04.975Z,24.29
2023-05-18T02:48:32.634Z,24.37
2023-05-18T02:50:59.410Z,24.05
2023-05-18T02:53:27.021Z,24.28
2023-05-18T02:56:03.415Z,24.43
2023-05-18T02:58:39.120Z,24.60
2023-05-18T03:01:22.250Z,24.68
2023-05-18T03:03:53.170Z,24.88
2023-05-18T03:06:26.801Z,24.95
2023-05-18T03:08:54.582Z,24.45
2023-05-18T03:11:23.845Z,24.46
2023-05-18T03:13:51.380Z,24.89
2023-05-18T03:16:18.998Z,24.74
2023-05-18T03:18:47.147Z,25.13
2023-05-18T03:21:15.420Z,25.75
2023-05-18T03:23:42.480Z,25.91
2023-05-18T03:26:11.525Z,25.76
2023-05-18T03:28:39.152Z,26.13
2023-05-18T03:31:06.246Z,26.43
2023-05-18T03:33:34.206Z,27.39
2023-05-18T03:36:03.357Z,28.56
2023-05-18T03:38:30.514Z,28.97
2023-05-18T03:41:02.255Z,29.47
2023-05-18T03:43:33.942Z,29.78
2023-05-18T03:46:00.861Z,30.29
2023-05-18T03:48:27.989Z,30.72
2023-05-18T03:50:54.997Z,31.30
2023-05-18T03:53:22.239Z,31.42
2023-05-18T03:55:51.666Z,31.37
2023-05-18T03:58:22.551Z,31.77
2023-05-18T04:00:51.068Z,32.51
2023-05-18T04:03:18.822Z,32.55
2023-05-18T04:05:46.119Z,32.66
2023-05-18T04:08:15.947Z,32.75
2023-05-18T04:10:43.549Z,32.92
2023-05-18T04:13:10.674Z,33.08
2023-05-18T04:15:38.052Z,33.30
2023-05-18T04:18:05.022Z,33.55
2023-05-18T04:20:31.893Z,33.61
2023-05-18T04:22:58.766Z,33.77
2023-05-18T04:25:28.958Z,33.60
2023-05-18T04:27:56.195Z,33.87
2023-05-18T04:30:26.829Z,34.08
2023-05-18T04:32:54.865Z,33.65
2023-05-18T04:35:22.077Z,33.43
2023-05-18T04:37:48.847Z,33.59
2023-05-18T04:40:17.759Z,34.25
2023-05-18T04:42:47.958Z,34.57
2023-05-18T04:45:19.659Z,34.76
2023-05-18T04:47:48.213Z,34.70
2023-05-18T04:50:18.166Z,34.86
2023-05-18T04:52:49.095Z,34.93
2023-05-18T04:55:23.250Z,35.18
2023-05-18T04:57:50.891Z,35.58
2023-05-18T05:00:18.624Z,35.89
2023-05-18T05:02:45.648Z,35.98
2023-05-18T05:05:13.146Z,36.09
2023-05-18T05:07:39.955Z,36.25
2023-05-18T05:10:09.703Z,36.71
2023-05-18T05:12:39.615Z,36.98
2023-05-18T05:15:07.666Z,36.92
2023-05-18T05:17:34.525Z,37.26
2023-05-18T05:20:01.321Z,37.29
2023-05-18T05:22:28.420Z,37.11
2023-05-18T05:24:55.678Z,36.81
2023-05-18T05:28:06.168Z,34.56
2023-05-18T05:30:33.640Z,36.39
2023-05-18T05:33:01.092Z,36.96
2023-05-18T05:35:30.439Z,36.75
2023-05-18T05:37:59.026Z,36.98
2023-05-18T05:40:25.875Z,36.81
2023-05-18T05:42:53.324Z,36.61
2023-05-18T05:45:20.132Z,36.85
2023-05-18T05:47:54.365Z,36.92
2023-05-18T05:50:22.546Z,36.93
2023-05-18T05:52:50.922Z,37.21
2023-05-18T05:55:18.587Z,37.51
2023-05-18T05:57:45.450Z,37.83
2023-05-18T06:00:13.173Z,37.77
2023-05-18T06:02:50.316Z,37.79
2023-05-18T06:05:24.600Z,38.17
2023-05-18T06:07:52.090Z,38.28
2023-05-18T06:10:19.109Z,38.38
2023-05-18T06:12:45.932Z,38.52
2023-05-18T06:15:12.790Z,38.14
2023-05-18T06:17:40.434Z,37.84
2023-05-18T06:20:08.533Z,37.89
2023-05-18T06:22:36.526Z,38.35
2023-05-18T06:25:18.854Z,38.73
2023-05-18T06:28:09.061Z,39.06
2023-05-18T06:30:43.006Z,39.09
2023-05-18T06:33:21.601Z,38.96
2023-05-18T06:35:48.370Z,39.55
2023-05-18T06:38:15.254Z,39.50
2023-05-18T06:40:44.287Z,39.58
2023-05-18T06:43:13.252Z,40.18
2023-05-18T06:45:56.603Z,40.45
2023-05-18T06:48:31.524Z,40.68
2023-05-18T06:50:58.519Z,40.55
2023-05-18T06:53:26.421Z,40.26
2023-05-18T06:55:53.399Z,39.77
2023-05-18T06:58:20.515Z,40.16
2023-05-18T07:00:48.500Z,40.14
2023-05-18T07:03:15.404Z,40.16
2023-05-18T07:05:42.285Z,39.96
2023-05-18T07:08:13.935Z,39.80
2023-05-18T07:10:41.224Z,39.49
2023-05-18T07:13:08.057Z,39.39
2023-05-18T07:15:35.134Z,39.11
2023-05-18T07:18:03.764Z,39.34
2023-05-18T07:20:30.897Z,40.01
2023-05-18T07:22:58.059Z,40.04
2023-05-18T07:25:24.965Z,40.09
2023-05-18T07:27:54.760Z,40.50
2023-05-18T07:30:22.406Z,40.15
2023-05-18T07:32:49.272Z,40.20
2023-05-18T07:35:17.099Z,40.76
2023-05-18T07:37:43.926Z,40.84
2023-05-18T07:40:11.553Z,40.86
2023-05-18T07:42:41.528Z,40.81
2023-05-18T07:45:09.107Z,40.89
2023-05-18T07:47:36.165Z,41.20
2023-05-18T07:50:02.980Z,41.25
2023-05-18T07:52:30.102Z,41.12
2023-05-18T07:55:00.190Z,41.21
2023-05-18T07:57:27.290Z,40.98
2023-05-18T07:59:54.104Z,40.51
2023-05-18T08:02:21.006Z,40.48
2023-05-18T08:04:48.121Z,41.14
2023-05-18T08:07:15.033Z,41.44
2023-05-18T08:09:41.919Z,41.30
2023-05-18T08:12:08.779Z,40.83
2023-05-18T08:14:35.904Z,40.74
2023-05-18T08:17:06.976Z,40.75
2023-05-18T08:19:33.859Z,40.60
2023-05-18T08:22:00.642Z,40.80
2023-05-18T08:24:27.532Z,40.42
2023-05-18T08:26:54.396Z,40.37
2023-05-18T08:29:21.391Z,40.49
2023-05-18T08:31:49.703Z,40.51
2023-05-18T08:34:16.881Z,40.62
2023-05-18T08:36:45.737Z,40.69
2023-05-18T08:39:13.040Z,40.73
2023-05-18T08:41:58.742Z,40.64
2023-05-18T08:44:38.792Z,40.64
2023-05-18T08:47:11.385Z,40.18
2023-05-18T08:49:38.264Z,39.94
2023-05-18T08:52:05.503Z,39.72
2023-05-18T08:54:32.278Z,40.08
2023-05-18T08:56:59.085Z,39.96
2023-05-18T08:59:27.501Z,38.89
2023-05-18T09:01:55.124Z,38.91
2023-05-18T09:04:22.558Z,39.17
2023-05-18T09:06:53.206Z,39.77
2023-05-18T09:09:20.171Z,41.01
2023-05-18T09:11:47.035Z,41.18
2023-05-18T09:14:14.119Z,41.08
2023-05-18T09:16:41.064Z,41.24
2023-05-18T09:19:10.102Z,41.35
2023-05-18T09:21:36.971Z,41.35
2023-05-18T09:24:03.946Z,41.35
2023-05-18T09:26:31.126Z,41.28
2023-05-18T09:28:59.766Z,41.40
2023-05-18T09:31:28.617Z,41.28
2023-05-18T09:33:55.650Z,41.73
2023-05-18T09:36:26.356Z,41.72
2023-05-18T09:38:54.755Z,42.26
2023-05-18T09:41:21.961Z,42.70
2023-05-18T09:43:50.110Z,42.48
2023-05-18T09:46:18.150Z,42.08
2023-05-18T09:48:52.566Z,41.92
2023-05-18T09:51:19.908Z,42.06
2023-05-18T09:53:53.836Z,41.73
2023-05-18T09:56:21.724Z,42.04
2023-05-18T09:58:48.545Z,42.38
2023-05-18T10:01:15.706Z,42.57
2023-05-18T10:03:45.271Z,43.28
2023-05-18T10:06:14.870Z,43.36
2023-05-18T10:08:41.651Z,43.25
2023-05-18T10:11:08.547Z,42.88
2023-05-18T10:13:35.492Z,41.97
2023-05-18T10:16:04.139Z,41.61
2023-05-18T10:18:37.677Z,41.44
2023-05-18T10:21:05.947Z,41.49
2023-05-18T10:23:36.444Z,41.88
2023-05-18T10:26:05.290Z,42.55
2023-05-18T10:28:36.301Z,43.07
2023-05-18T10:31:04.456Z,43.41
2023-05-18T10:33:31.648Z,43.61
2023-05-18T10:35:58.937Z,43.40
2023-05-18T10:38:27.417Z,43.57
2023-05-18T10:40:55.926Z,43.27
2023-05-18T10:43:32.593Z,42.39
2023-05-18T10:46:01.039Z,41.65
2023-05-18T10:48:29.634Z,41.35
2023-05-18T10:50:57.784Z,41.21
2023-05-18T10:53:36.567Z,41.52
2023-05-18T10:56:03.805Z,41.83
2023-05-18T10:58:30.984Z,42.03
2023-05-18T11:01:02.006Z,42.15
2023-05-18T11:03:28.936Z,42.16
2023-05-18T11:06:12.251Z,42.24
2023-05-18T11:08:49.978Z,42.02
2023-05-18T11:11:19.220Z,41.80
2023-05-18T11:13:50.367Z,42.11
2023-05-18T11:16:18.431Z,41.85
2023-05-18T11:18:49.914Z,41.24
2023-05-18T11:21:20.416Z,41.39
2023-05-18T11:24:25.129Z,40.96
2023-05-18T11:26:56.332Z,40.74
2023-05-18T11:29:29.776Z,41.02
2023-05-18T11:31:56.961Z,41.42
2023-05-18T11:34:46.677Z,41.46
2023-05-18T11:37:14.813Z,41.13
2023-05-18T11:39:51.693Z,40.99
2023-05-18T11:42:25.158Z,41.12
2023-05-18T11:44:57.846Z,41.08
2023-05-18T11:47:30.303Z,41.07
2023-05-18T11:49:57.240Z,41.15
2023-05-18T11:52:25.036Z,41.02
2023-05-18T11:55:01.465Z,41.10
2023-05-18T11:57:34.301Z,41.47
2023-05-18T12:00:02.685Z,41.66
2023-05-18T12:02:39.636Z,41.82
2023-05-18T12:05:08.349Z,41.91
2023-05-18T12:07:36.414Z,41.91
2023-05-18T12:10:12.112Z,42.02
2023-05-18T12:12:39.979Z,42.28
2023-05-18T12:15:11.539Z,43.03
2023-05-18T12:17:42.432Z,42.87
2023-05-18T12:20:11.702Z,42.08
2023-05-18T12:22:42.861Z,41.42
2023-05-18T12:25:09.913Z,41.62
2023-05-18T12:27:43.949Z,41.63
2023-05-18T12:30:21.394Z,40.86
2023-05-18T12:32:52.741Z,41.04
2023-05-18T12:35:26.357Z,41.56
2023-05-18T12:37:55.629Z,41.83
2023-05-18T12:40:22.572Z,42.08
2023-05-18T12:42:53.742Z,41.62
2023-05-18T12:45:25.635Z,41.13
2023-05-18T12:47:54.730Z,41.03
2023-05-18T12:50:22.580Z,41.04
2023-05-18T12:52:49.528Z,41.05
2023-05-18T12:55:23.267Z,41.01
2023-05-18T12:58:18.114Z,41.06
2023-05-18T13:00:46.116Z,41.12
2023-05-18T13:03:16.329Z,41.33
2023-05-18T13:05:45.698Z,41.25
2023-05-18T13:08:18.132Z,41.30
2023-05-18T13:10:55.213Z,41.15
2023-05-18T13:13:28.686Z,41.17
2023-05-18T13:15:55.546Z,41.06
2023-05-18T13:18:22.486Z,40.62
2023-05-18T13:20:51.828Z,40.62
2023-05-18T13:23:21.216Z,40.62
2023-05-18T13:25:48.228Z,40.45
2023-05-18T13:28:16.234Z,40.38
2023-05-18T13:30:43.290Z,40.13
2023-05-18T13:33:10.884Z,40.24
2023-05-18T13:35:38.718Z,40.22
2023-05-18T13:38:05.487Z,40.14
2023-05-18T13:40:32.306Z,39.94
2023-05-18T13:42:59.069Z,39.90
2023-05-18T13:45:26.264Z,39.99
2023-05-18T13:47:56.946Z,40.14
2023-05-18T13:50:23.901Z,40.35
2023-05-18T13:52:50.875Z,40.30
2023-05-18T13:55:17.685Z,40.14
2023-05-18T13:57:47.628Z,40.16
2023-05-18T14:00:16.038Z,40.22
2023-05-18T14:02:43.802Z,40.28
2023-05-18T14:05:10.896Z,40.17
2023-05-18T14:07:38.270Z,40.44
2023-05-18T14:10:09.537Z,40.42
2023-05-18T14:12:36.388Z,40.31
2023-05-18T14:15:03.738Z,40.07
2023-05-18T14:17:30.859Z,39.65
2023-05-18T14:19:57.787Z,39.26
2023-05-18T14:22:26.252Z,39.18
2023-05-18T14:24:53.553Z,39.32
2023-05-18T14:27:20.660Z,39.62
2023-05-18T14:29:48.172Z,39.60
2023-05-18T14:32:15.195Z,39.29
2023-05-18T14:34:42.044Z,38.94
2023-05-18T14:37:10.019Z,38.98
2023-05-18T14:39:37.952Z,39.22
2023-05-18T14:42:06.277Z,39.21
2023-05-18T14:44:33.308Z,39.00
2023-05-18T14:47:00.166Z,38.93
2023-05-18T14:49:27.207Z,38.69
2023-05-18T14:51:54.139Z,38.77
2023-05-18T14:54:22.684Z,39.04
2023-05-18T14:56:50.063Z,38.85
2023-05-18T14:59:16.856Z,38.39
2023-05-18T15:01:44.936Z,38.30
2023-05-18T15:04:12.254Z,38.39
2023-05-18T15:06:40.641Z,38.45
2023-05-18T15:09:08.445Z,38.40
2023-05-18T15:11:35.286Z,38.47
2023-05-18T15:14:02.018Z,38.35
2023-05-18T15:16:28.906Z,38.54
2023-05-18T15:18:56.436Z,38.24
2023-05-18T15:21:23.279Z,38.38
2023-05-18T15:23:50.055Z,38.53
2023-05-18T15:26:16.817Z,38.43
2023-05-18T15:28:45.123Z,38.16
2023-05-18T15:31:12.164Z,38.13
2023-05-18T15:33:42.535Z,38.26
2023-05-18T15:36:09.826Z,38.33
2023-05-18T15:38:36.615Z,38.26
2023-05-18T15:41:03.510Z,38.13
2023-05-18T15:43:31.084Z,38.14
2023-05-18T15:45:58.568Z,38.15
2023-05-18T15:48:25.817Z,38.10
2023-05-18T15:50:52.777Z,37.94
2023-05-18T15:53:19.569Z,37.87
2023-05-18T15:55:46.633Z,38.12
2023-05-18T15:58:13.591Z,38.18
2023-05-18T16:00:40.544Z,38.22
2023-05-18T16:03:07.485Z,38.27
2023-05-18T16:05:34.336Z,38.10
2023-05-18T16:08:01.460Z,37.85
2023-05-18T16:10:28.485Z,37.78
2023-05-18T16:12:55.479Z,37.62
2023-05-18T16:15:24.714Z,37.57
2023-05-18T16:17:51.623Z,37.78
2023-05-18T16:20:18.664Z,37.66
2023-05-18T16:22:46.923Z,37.85
2023-05-18T16:25:16.963Z,37.70
2023-05-18T16:27:43.861Z,37.37
2023-05-18T16:30:10.951Z,37.42
2023-05-18T16:32:37.854Z,37.59
2023-05-18T16:35:05.235Z,37.59
2023-05-18T16:37:34.634Z,37.70
2023-05-18T16:40:01.441Z,38.10
2023-05-18T16:42:28.276Z,38.39
2023-05-18T16:44:55.700Z,38.43
2023-05-18T16:47:23.045Z,38.81
2023-05-18T16:49:49.849Z,38.86
2023-05-18T16:52:18.401Z,38.94
2023-05-18T16:54:45.677Z,38.65
2023-05-18T16:57:13.340Z,38.43
2023-05-18T16:59:40.150Z,38.19
2023-05-18T17:02:09.051Z,38.08
2023-05-18T17:04:35.952Z,38.15
2023-05-18T17:07:02.850Z,37.85
2023-05-18T17:09:29.730Z,37.61
2023-05-18T17:11:56.502Z,37.50
2023-05-18T17:14:23.336Z,37.49
2023-05-18T17:16:50.108Z,37.48
2023-05-18T17:19:16.962Z,37.16
2023-05-18T17:21:43.966Z,36.91
2023-05-18T17:24:12.941Z,36.57
2023-05-18T17:26:39.738Z,35.90
2023-05-18T17:29:06.936Z,35.78
2023-05-18T17:31:33.918Z,35.68
2023-05-18T17:34:01.997Z,35.80
2023-05-18T17:36:28.944Z,35.65
2023-05-18T17:38:56.596Z,35.29
2023-05-18T17:41:26.061Z,34.75
2023-05-18T17:45:20.416Z,30.73
2023-05-18T17:47:47.278Z,32.55
2023-05-18T17:50:14.734Z,32.84
2023-05-18T17:52:41.538Z,33.00
2023-05-18T17:55:08.889Z,33.10
2023-05-18T17:57:35.914Z,32.78
2023-05-18T18:00:02.874Z,32.75
2023-05-18T18:02:38.257Z,32.70
2023-05-18T18:05:05.420Z,32.39
2023-05-18T18:07:32.172Z,32.15
2023-05-18T18:09:59.225Z,31.98
2023-05-18T18:12:26.031Z,31.93
2023-05-18T18:14:53.121Z,31.72
2023-05-18T18:17:19.965Z,31.69
2023-05-18T18:19:46.807Z,31.59
2023-05-18T18:22:13.726Z,31.71
2023-05-18T18:24:40.544Z,31.55
2023-05-18T18:27:07.380Z,30.98
2023-05-18T18:29:34.145Z,30.58
2023-05-18T18:32:01.243Z,30.46
2023-05-18T18:34:28.094Z,30.47
2023-05-18T18:36:54.984Z,30.51
2023-05-18T18:39:22.043Z,30.26
2023-05-18T18:41:48.887Z,30.18
2023-05-18T18:44:15.842Z,30.17
2023-05-18T18:46:43.381Z,30.17
2023-05-18T18:49:10.227Z,29.97
2023-05-18T18:51:38.064Z,29.94
2023-05-18T18:54:05.025Z,30.11
2023-05-18T18:56:32.117Z,30.12
2023-05-18T18:58:58.930Z,30.17
2023-05-18T19:01:25.765Z,30.22
2023-05-18T19:03:54.185Z,30.00
2023-05-18T19:06:22.788Z,29.39
2023-05-18T19:08:52.191Z,29.47
2023-05-18T19:11:22.143Z,29.83
2023-05-18T19:13:49.208Z,29.96
2023-05-18T19:16:17.708Z,30.08
2023-05-18T19:18:44.895Z,29.86
2023-05-18T19:21:11.712Z,29.67
2023-05-18T19:23:39.031Z,29.71
2023-05-18T19:26:05.874Z,29.40
2023-05-18T19:28:33.994Z,29.48
2023-05-18T19:31:02.767Z,29.68
2023-05-18T19:33:30.832Z,29.92
2023-05-18T19:35:58.188Z,29.89
2023-05-18T19:38:25.695Z,29.67
2023-05-18T19:40:52.549Z,29.99
2023-05-18T19:43:20.998Z,29.74
2023-05-18T19:45:49.939Z,29.26
2023-05-18T19:48:18.007Z,29.09
2023-05-18T19:50:44.762Z,29.13
2023-05-18T19:53:11.751Z,28.94
2023-05-18T19:55:39.010Z,28.97
2023-05-18T19:58:06.572Z,28.91
2023-05-18T20:00:33.932Z,28.84
2023-05-18T20:03:03.257Z,28.60
2023-05-18T20:05:30.328Z,28.35
2023-05-18T20:07:58.280Z,28.34
2023-05-18T20:10:25.459Z,28.25
2023-05-18T20:12:52.292Z,28.56
2023-05-18T20:15:19.105Z,28.91
2023-05-18T20:17:46.215Z,28.69
2023-05-18T20:20:13.134Z,28.67
2023-05-18T20:22:40.303Z,28.55
2023-05-18T20:25:07.898Z,28.74
2023-05-18T20:27:34.642Z,28.91
2023-05-18T20:30:01.419Z,28.84
2023-05-18T20:32:29.085Z,29.02
2023-05-18T20:34:56.054Z,29.05
2023-05-18T20:37:24.185Z,29.00
2023-05-18T20:39:51.656Z,28.87
2023-05-18T20:42:21.894Z,28.79
2023-05-18T20:44:51.293Z,29.18
2023-05-18T20:47:21.488Z,29.26
2023-05-18T20:49:48.734Z,29.38
2023-05-18T20:52:15.600Z,29.71
2023-05-18T20:54:43.474Z,29.65
2023-05-18T20:57:10.698Z,30.06
2023-05-18T20:59:37.724Z,29.97
2023-05-18T21:02:05.072Z,30.10
2023-05-18T21:04:32.018Z,29.97
2023-05-18T21:06:58.890Z,29.82
2023-05-18T21:09:25.702Z,29.85
2023-05-18T21:11:52.591Z,29.96
2023-05-18T21:14:19.413Z,30.18
2023-05-18T21:16:46.944Z,30.09
2023-05-18T21:19:13.899Z,30.30
2023-05-18T21:21:40.736Z,30.02
2023-05-18T21:24:08.634Z,30.05
2023-05-18T21:26:35.482Z,30.20
2023-05-18T21:29:02.350Z,30.11
2023-05-18T21:31:31.964Z,30.12
2023-05-18T21:33:58.823Z,30.09
2023-05-18T21:36:33.893Z,30.10
2023-05-18T21:39:01.931Z,29.97
2023-05-18T21:41:29.265Z,29.92
2023-05-18T21:43:57.779Z,29.70
2023-05-18T21:46:24.725Z,29.51
2023-05-18T21:48:51.760Z,29.74
2023-05-18T21:51:18.691Z,30.02
2023-05-18T21:53:46.015Z,30.03
2023-05-18T21:56:12.792Z,29.98
2023-05-18T21:58:39.584Z,29.72
2023-05-18T22:01:06.765Z,29.91
2023-05-18T22:03:33.620Z,29.87
2023-05-18T22:06:00.516Z,29.75
2023-05-18T22:08:30.138Z,29.83
2023-05-18T22:10:56.961Z,29.77
2023-05-18T22:13:23.832Z,29.98
2023-05-18T22:15:50.895Z,29.95
2023-05-18T22:18:19.257Z,29.99
2023-05-18T22:20:46.071Z,29.96
2023-05-18T22:23:12.928Z,29.90
2023-05-18T22:25:39.689Z,29.94
2023-05-18T22:28:06.609Z,29.92
2023-05-18T22:30:33.894Z,29.85
2023-05-18T22:33:01.091Z,29.84
2023-05-18T22:35:27.934Z,29.52
2023-05-18T22:37:54.899Z,29.65
2023-05-18T22:40:21.962Z,29.90
2023-05-18T22:42:49.361Z,30.16
2023-05-18T22:45:16.495Z,30.27
2023-05-18T22:47:45.372Z,30.34
2023-05-18T22:50:12.320Z,30.71
2023-05-18T22:52:40.604Z,30.65
2023-05-18T22:55:16.266Z,30.61
2023-05-18T22:57:43.675Z,30.33
2023-05-18T23:00:12.530Z,30.41
2023-05-18T23:02:40.056Z,30.51
2023-05-18T23:05:08.195Z,30.24
2023-05-18T23:07:38.380Z,30.17
2023-05-18T23:10:11.217Z,30.14
2023-05-18T23:12:38.321Z,30.04
2023-05-18T23:15:06.078Z,29.92
2023-05-18T23:17:33.065Z,30.08
2023-05-18T23:20:02.823Z,30.29
2023-05-18T23:22:29.568Z,30.00
2023-05-18T23:24:56.418Z,30.09
2023-05-18T23:27:23.194Z,30.13
2023-05-18T23:29:49.979Z,30.06
2023-05-18T23:32:16.795Z,30.15
2023-05-18T23:34:44.754Z,30.15
2023-05-18T23:37:11.615Z,30.12
2023-05-18T23:39:40.911Z,30.37
2023-05-18T23:42:08.701Z,30.60
2023-05-18T23:44:35.961Z,30.59
2023-05-18T23:47:04.725Z,31.01
2023-05-18T23:49:32.313Z,31.32
2023-05-18T23:52:01.376Z,31.21
2023-05-18T23:54:28.827Z,31.01
2023-05-18T23:56:56.173Z,30.76
2023-05-18T23:59:23.544Z,30.75
